Time;durP1;ratioP1;P1;durP2;ratioP2;P2;SDS_P1;SDS_P2;PMS_P1;PMS_P2;Temp;Humidity;BMP_temperature;BMP_pressure;BME280_temperature;BME280_humidity;BME280_pressure;Samples;Min_cycle;Max_cycle;Signal;HPM_P1;HPM_P2
2022/03/09 05:01:05;;;;;;;;;;;0.90;89.80;;;;;;5637894;23;20381;-68
2022/03/09 05:03:34;;;;;;;;;;;0.80;89.50;;;;;;4977948;28;20026;-68
2022/03/09 05:06:01;;;;;;;;;;;0.70;89.60;;;;;;4977343;28;20128;-68
2022/03/09 05:08:27;;;;;;;;;;;0.70;90.30;;;;;;4977306;28;20006;-67
2022/03/09 05:10:54;;;;;;;;;;;0.80;90.70;;;;;;4976076;28;20015;-68
2022/03/09 05:13:21;;;;;;;;;;;0.60;90.10;;;;;;4976722;28;20520;-67
2022/03/09 05:15:47;;;;;;;;;;;0.60;90.60;;;;;;4977080;28;20003;-67
2022/03/09 05:18:15;;;;;;;;;;;0.40;90.70;;;;;;4977055;28;20002;-67
2022/03/09 05:20:42;;;;;;;;;;;0.40;91.20;;;;;;4977044;28;20026;-67
2022/03/09 05:23:08;;;;;;;;;;;0.30;91.50;;;;;;4977903;28;20014;-67
2022/03/09 05:25:35;;;;;;;;;;;0.40;92.40;;;;;;4977226;28;20007;-68
2022/03/09 05:28:01;;;;;;;;;;;0.40;92.60;;;;;;4977064;28;20010;-68
2022/03/09 05:30:28;;;;;;;;;;;0.30;92.60;;;;;;4976845;28;20050;-68
2022/03/09 05:32:55;;;;;;;;;;;0.10;93.30;;;;;;4976976;28;20053;-68
2022/03/09 05:35:23;;;;;;;;;;;0.10;94.20;;;;;;4977245;28;20002;-68
2022/03/09 05:37:49;;;;;;;;;;;0.10;95.10;;;;;;4977484;28;20002;-67
2022/03/09 05:40:16;;;;;;;;;;;0.00;94.50;;;;;;4977138;28;20447;-67
2022/03/09 05:42:43;;;;;;;;;;;0.00;94.60;;;;;;4977032;28;20041;-68
2022/03/09 05:45:10;;;;;;;;;;;-0.10;95.00;;;;;;4977164;28;20049;-67
2022/03/09 05:47:37;;;;;;;;;;;-0.20;95.60;;;;;;4977166;28;20010;-69
2022/03/09 05:50:03;;;;;;;;;;;-0.30;95.90;;;;;;4976558;28;20006;-68
2022/03/09 05:52:31;;;;;;;;;;;-0.30;96.10;;;;;;4977028;28;20030;-71
2022/03/09 05:54:58;;;;;;;;;;;-0.40;96.30;;;;;;4977096;28;20003;-69
2022/03/09 05:57:25;;;;;;;;;;;-0.40;96.40;;;;;;4976935;28;20046;-70
2022/03/09 05:59:51;;;;;;;;;;;-0.50;96.40;;;;;;4977000;28;20002;-69
2022/03/09 06:02:18;;;;;;;;;;;-0.60;96.50;;;;;;4976560;28;20026;-70
2022/03/09 06:04:45;;;;;;;;;;;-0.70;96.80;;;;;;4976980;28;20007;-69
2022/03/09 06:07:11;;;;;;;;;;;-0.70;97.10;;;;;;4977616;28;20009;-69
2022/03/09 06:09:39;;;;;;;;;;;-0.80;97.40;;;;;;4978172;28;20007;-69
2022/03/09 06:12:06;;;;;;;;;;;-1.00;97.80;;;;;;4980140;28;20025;-68
2022/03/09 06:14:33;;;;;;;;;;;-1.00;98.40;;;;;;4979978;28;20003;-68
2022/03/09 06:16:59;;;;;;;;;;;-1.00;98.80;;;;;;4978969;28;20003;-69
2022/03/09 06:19:26;;;;;;;;;;;-1.00;99.30;;;;;;4977847;28;20007;-69
2022/03/09 06:21:52;;;;;;;;;;;-1.00;99.70;;;;;;4975840;28;20026;-68
2022/03/09 06:24:19;;;;;;;;;;;-1.00;99.90;;;;;;4975730;28;20041;-69
2022/03/09 06:26:47;;;;;;;;;;;-1.00;99.90;;;;;;4978498;28;20002;-69
2022/03/09 06:29:13;;;;;;;;;;;-1.00;99.90;;;;;;4977624;28;20446;-70
2022/03/09 06:31:42;;;;;;;;;;;-1.00;99.90;;;;;;4975327;28;20105;-69
2022/03/09 06:34:09;;;;;;;;;;;-0.90;99.90;;;;;;4975532;28;20003;-68
2022/03/09 06:36:35;;;;;;;;;;;-0.90;99.90;;;;;;4975466;28;20045;-69
2022/03/09 06:39:02;;;;;;;;;;;-0.90;99.90;;;;;;4975364;28;20010;-69
2022/03/09 06:41:29;;;;;;;;;;;-0.80;99.90;;;;;;4975255;28;20018;-70
2022/03/09 06:43:56;;;;;;;;;;;-0.70;99.90;;;;;;4975827;28;20014;-70
2022/03/09 06:46:23;;;;;;;;;;;-0.70;99.90;;;;;;4976334;28;20011;-70
2022/03/09 06:48:50;;;;;;;;;;;-0.60;99.90;;;;;;4975755;28;20065;-69
2022/03/09 06:51:16;;;;;;;;;;;-0.40;99.90;;;;;;4975328;28;20027;-69
2022/03/09 06:53:44;;;;;;;;;;;-0.10;99.90;;;;;;4975397;28;20010;-70
2022/03/09 06:56:11;;;;;;;;;;;0.70;99.90;;;;;;4975290;28;20015;-70
2022/03/09 06:58:37;;;;;;;;;;;1.70;97.50;;;;;;4975738;28;20003;-69
2022/03/09 07:01:05;;;;;;;;;;;2.80;92.00;;;;;;4975034;28;20023;-70
2022/03/09 07:03:32;;;;;;;;;;;3.70;86.50;;;;;;4975247;28;20387;-70
2022/03/09 07:05:58;;;;;;;;;;;4.60;81.80;;;;;;4975294;28;20010;-70
2022/03/09 07:08:25;;;;;;;;;;;5.40;76.60;;;;;;4975271;28;20006;-70
2022/03/09 07:10:51;;;;;;;;;;;6.30;71.90;;;;;;4974905;28;20023;-69
2022/03/09 07:13:18;;;;;;;;;;;6.70;65.90;;;;;;4975246;28;20003;-70
2022/03/09 07:15:44;;;;;;;;;;;7.20;64.70;;;;;;4975639;28;20003;-70
2022/03/09 07:18:12;;;;;;;;;;;7.50;62.30;;;;;;4975233;28;20363;-70
2022/03/09 07:20:40;;;;;;;;;;;7.80;61.30;;;;;;4975544;28;20019;-70
2022/03/09 07:23:07;;;;;;;;;;;8.10;59.70;;;;;;4975329;28;20036;-70
2022/03/09 07:25:34;;;;;;;;;;;8.40;58.50;;;;;;4974930;28;20006;-70
2022/03/09 07:28:01;;;;;;;;;;;8.70;57.50;;;;;;4975022;28;20059;-70
2022/03/09 07:30:27;;;;;;;;;;;9.30;57.00;;;;;;4976036;28;20006;-70
2022/03/09 07:32:54;;;;;;;;;;;9.70;55.70;;;;;;4975236;28;20009;-69
2022/03/09 07:35:22;;;;;;;;;;;10.00;53.60;;;;;;4977472;28;20050;-69
2022/03/09 07:37:50;;;;;;;;;;;10.00;52.90;;;;;;4978887;28;20006;-69
2022/03/09 07:40:16;;;;;;;;;;;10.30;53.10;;;;;;4978234;28;20009;-71
2022/03/09 07:42:43;;;;;;;;;;;10.80;52.30;;;;;;4979428;28;20007;-69
2022/03/09 07:45:10;;;;;;;;;;;11.10;51.30;;;;;;4978883;28;20046;-70
2022/03/09 07:47:37;;;;;;;;;;;11.40;50.20;;;;;;4978621;28;20002;-70
2022/03/09 07:50:04;;;;;;;;;;;11.20;49.60;;;;;;4978421;28;20094;-70
2022/03/09 07:52:32;;;;;;;;;;;11.50;50.10;;;;;;4978802;28;20505;-69
2022/03/09 07:54:59;;;;;;;;;;;11.30;49.50;;;;;;4979720;28;20006;-70
2022/03/09 07:57:25;;;;;;;;;;;11.10;50.10;;;;;;4979918;28;20002;-69
2022/03/09 07:59:52;;;;;;;;;;;11.20;49.60;;;;;;4980056;28;20421;-70
2022/03/09 08:02:18;;;;;;;;;;;11.70;50.00;;;;;;4978737;28;20023;-70
2022/03/09 08:04:45;;;;;;;;;;;12.10;48.80;;;;;;4977894;28;20057;-69
2022/03/09 08:07:12;;;;;;;;;;;12.00;47.80;;;;;;4978547;28;20454;-71
2022/03/09 08:09:39;;;;;;;;;;;11.90;47.80;;;;;;4986637;28;20003;-70
2022/03/09 08:12:06;;;;;;;;;;;12.10;48.20;;;;;;4978247;28;20025;-70
2022/03/09 08:14:33;;;;;;;;;;;12.70;48.00;;;;;;4978125;28;20010;-70
2022/03/09 08:16:59;;;;;;;;;;;13.30;47.10;;;;;;4978093;28;20007;-70
2022/03/09 08:19:28;;;;;;;;;;;13.40;46.20;;;;;;4977794;28;20414;-70
2022/03/09 08:21:54;;;;;;;;;;;14.00;46.40;;;;;;4977956;28;20025;-70
2022/03/09 08:24:21;;;;;;;;;;;14.40;45.80;;;;;;4977739;28;20015;-70
2022/03/09 08:26:49;;;;;;;;;;;14.70;44.70;;;;;;4977771;28;20053;-71
2022/03/09 08:29:16;;;;;;;;;;;14.30;43.60;;;;;;4977335;28;20002;-70
2022/03/09 08:31:42;;;;;;;;;;;14.60;44.40;;;;;;4977559;28;20027;-69
2022/03/09 08:34:09;;;;;;;;;;;15.10;44.30;;;;;;4977474;28;20010;-71
2022/03/09 08:36:35;;;;;;;;;;;15.60;44.40;;;;;;4977402;28;20097;-70
2022/03/09 08:39:02;;;;;;;;;;;15.70;44.20;;;;;;4977320;28;20106;-70
2022/03/09 08:41:30;;;;;;;;;;;16.10;43.00;;;;;;4977081;28;20458;-69
2022/03/09 08:43:58;;;;;;;;;;;14.20;41.60;;;;;;4978303;28;20021;-70
2022/03/09 08:46:24;;;;;;;;;;;15.00;43.30;;;;;;4976610;28;20003;-70
2022/03/09 08:48:51;;;;;;;;;;;15.30;42.70;;;;;;4977124;28;20002;-70
2022/03/09 08:51:20;;;;;;;;;;;15.10;43.00;;;;;;4977277;28;20110;-70
2022/03/09 08:53:47;;;;;;;;;;;15.70;41.50;;;;;;4978764;28;20458;-69
2022/03/09 08:56:14;;;;;;;;;;;16.10;40.90;;;;;;4981205;28;20009;-69
2022/03/09 08:58:41;;;;;;;;;;;15.20;40.50;;;;;;4977420;28;20516;-70
2022/03/09 09:01:09;;;;;;;;;;;15.00;42.90;;;;;;4976370;28;20491;-70
2022/03/09 09:03:35;;;;;;;;;;;16.00;41.50;;;;;;4976944;28;20430;-69
2022/03/09 09:06:02;;;;;;;;;;;15.90;40.60;;;;;;4977008;28;20007;-70
2022/03/09 09:08:29;;;;;;;;;;;16.00;40.40;;;;;;4977087;28;20399;-70
2022/03/09 09:10:55;;;;;;;;;;;16.40;40.90;;;;;;4976496;28;20074;-70
2022/03/09 09:13:22;;;;;;;;;;;16.40;40.00;;;;;;4977043;28;20035;-70
2022/03/09 09:15:49;;;;;;;;;;;16.10;39.60;;;;;;4976816;28;20084;-70
2022/03/09 09:18:17;;;;;;;;;;;16.80;40.80;;;;;;4977040;28;20010;-70
2022/03/09 09:20:43;;;;;;;;;;;17.10;39.20;;;;;;4976580;28;20023;-70
2022/03/09 09:23:10;;;;;;;;;;;17.20;38.60;;;;;;4977026;28;20034;-69
2022/03/09 09:25:37;;;;;;;;;;;17.60;41.40;;;;;;4977474;28;20019;-69
2022/03/09 09:28:03;;;;;;;;;;;16.80;42.60;;;;;;4977014;28;20097;-70
2022/03/09 09:30:31;;;;;;;;;;;17.50;43.90;;;;;;4982524;28;20482;-70
2022/03/09 09:32:57;;;;;;;;;;;17.20;41.40;;;;;;4978833;28;20003;-69
2022/03/09 09:35:25;;;;;;;;;;;16.70;42.90;;;;;;4977368;28;20003;-71
2022/03/09 09:37:52;;;;;;;;;;;17.00;40.30;;;;;;4976578;28;20003;-70
2022/03/09 09:40:19;;;;;;;;;;;18.50;45.20;;;;;;4976515;28;20006;-70
2022/03/09 09:42:45;;;;;;;;;;;18.00;44.70;;;;;;4976788;28;20433;-70
2022/03/09 09:45:12;;;;;;;;;;;19.40;41.90;;;;;;4976116;28;20015;-70
2022/03/09 09:47:39;;;;;;;;;;;18.00;40.10;;;;;;4976638;28;20002;-70
2022/03/09 09:50:06;;;;;;;;;;;18.40;39.00;;;;;;4976629;28;20007;-68
2022/03/09 09:52:36;;;;;;;;;;;19.10;38.50;;;;;;4978739;28;20066;-69
2022/03/09 09:55:03;;;;;;;;;;;19.30;38.30;;;;;;4978691;28;20008;-70
2022/03/09 09:57:31;;;;;;;;;;;18.10;37.90;;;;;;4976574;28;20406;-70
2022/03/09 09:59:58;;;;;;;;;;;18.80;39.00;;;;;;4976752;28;20098;-70
2022/03/09 10:02:24;;;;;;;;;;;20.10;38.50;;;;;;4976324;28;20126;-69
2022/03/09 10:04:51;;;;;;;;;;;20.00;36.90;;;;;;4977993;28;20018;-70
2022/03/09 10:07:19;;;;;;;;;;;19.90;39.90;;;;;;4978456;28;20469;-70
2022/03/09 10:09:46;;;;;;;;;;;19.60;38.80;;;;;;4978239;28;20003;-70
2022/03/09 10:12:15;;;;;;;;;;;21.10;38.10;;;;;;4978880;28;20026;-71
2022/03/09 10:14:43;;;;;;;;;;;22.60;38.70;;;;;;4979732;28;20445;-70
2022/03/09 10:17:10;;;;;;;;;;;21.60;36.60;;;;;;4980076;28;20009;-69
2022/03/09 10:19:38;;;;;;;;;;;20.30;36.40;;;;;;4979124;28;20003;-70
2022/03/09 10:22:24;;;;;;;;;;;21.60;38.60;;;;;;4977455;28;20516;-70
2022/03/09 10:24:53;;;;;;;;;;;22.80;36.70;;;;;;4976751;28;20015;-70
2022/03/09 10:27:33;;;;;;;;;;;23.00;35.60;;;;;;4977093;28;20486;-70
2022/03/09 10:30:00;;;;;;;;;;;23.10;35.00;;;;;;4977051;28;20003;-70
2022/03/09 10:32:41;;;;;;;;;;;22.90;36.80;;;;;;4976582;28;20043;-70
2022/03/09 10:35:08;;;;;;;;;;;23.20;36.00;;;;;;4975837;28;20003;-69
2022/03/09 10:37:38;;;;;;;;;;;21.60;34.40;;;;;;4976008;28;20007;-70
2022/03/09 10:40:10;;;;;;;;;;;21.90;34.60;;;;;;4976711;28;20010;-70
2022/03/09 10:42:36;;;;;;;;;;;22.60;33.70;;;;;;4976850;28;20018;-70
2022/03/09 10:45:05;;;;;;;;;;;21.40;34.40;;;;;;4976202;28;20478;-70
2022/03/09 10:47:32;;;;;;;;;;;21.90;34.10;;;;;;4976441;28;20003;-70
2022/03/09 10:50:09;;;;;;;;;;;21.40;34.70;;;;;;4976110;28;20010;-70
2022/03/09 10:52:42;;;;;;;;;;;22.10;35.60;;;;;;4975772;28;20022;-70
2022/03/09 10:55:24;;;;;;;;;;;20.70;34.80;;;;;;4976347;28;20010;-69
2022/03/09 10:57:51;;;;;;;;;;;21.30;33.60;;;;;;4976726;28;20465;-71
2022/03/09 11:00:34;;;;;;;;;;;21.90;35.40;;;;;;4975306;28;20003;-69
2022/03/09 11:03:04;;;;;;;;;;;21.40;34.10;;;;;;4978195;28;20006;-70
2022/03/09 11:05:31;;;;;;;;;;;21.50;33.40;;;;;;4977552;28;20041;-70
2022/03/09 11:07:58;;;;;;;;;;;20.50;37.00;;;;;;4977266;28;20002;-70
2022/03/09 11:10:26;;;;;;;;;;;20.50;35.30;;;;;;4980095;28;20010;-70
2022/03/09 11:12:54;;;;;;;;;;;19.50;37.00;;;;;;4985203;28;20003;-69
2022/03/09 11:15:21;;;;;;;;;;;19.80;35.10;;;;;;4983708;28;20054;-70
2022/03/09 11:17:49;;;;;;;;;;;19.10;35.90;;;;;;4981591;28;20478;-70
2022/03/09 11:20:16;;;;;;;;;;;19.40;34.40;;;;;;4980802;28;20006;-69
2022/03/09 11:22:43;;;;;;;;;;;19.10;38.00;;;;;;4981312;28;20046;-68
2022/03/09 11:25:10;;;;;;;;;;;18.80;38.70;;;;;;4981076;28;20015;-69
2022/03/09 11:27:43;;;;;;;;;;;18.10;36.50;;;;;;4981792;28;20079;-69
2022/03/09 11:30:22;;;;;;;;;;;18.00;36.70;;;;;;4981473;28;19999;-70
2022/03/09 11:32:50;;;;;;;;;;;17.10;39.20;;;;;;4980382;28;20362;-70
2022/03/09 11:35:33;;;;;;;;;;;17.00;38.00;;;;;;4979096;28;20003;-70
2022/03/09 11:37:59;;;;;;;;;;;16.90;35.70;;;;;;4985540;28;20033;-70
2022/03/09 11:40:26;;;;;;;;;;;16.50;36.70;;;;;;4984058;28;20401;-70
2022/03/09 11:42:54;;;;;;;;;;;16.00;39.70;;;;;;4981434;28;20002;-69
2022/03/09 11:45:30;;;;;;;;;;;16.00;40.80;;;;;;4979013;28;20026;-70
2022/03/09 11:47:58;;;;;;;;;;;16.40;39.00;;;;;;4978584;28;20454;-69
2022/03/09 11:50:26;;;;;;;;;;;16.70;41.10;;;;;;4979079;28;20342;-70
2022/03/09 11:52:57;;;;;;;;;;;16.70;37.60;;;;;;4978526;28;20010;-70
2022/03/09 11:55:24;;;;;;;;;;;16.80;39.60;;;;;;4978763;28;20007;-69
2022/03/09 11:58:08;;;;;;;;;;;16.80;39.90;;;;;;4979331;28;20007;-69
2022/03/09 12:00:35;;;;;;;;;;;16.60;38.40;;;;;;4982965;28;20122;-70
2022/03/09 12:03:01;;;;;;;;;;;16.40;38.10;;;;;;4981482;28;20002;-69
2022/03/09 12:05:39;;;;;;;;;;;16.90;41.00;;;;;;4979497;28;20045;-69
2022/03/09 12:08:06;;;;;;;;;;;17.10;36.90;;;;;;4980306;28;20007;-69
2022/03/09 12:10:43;;;;;;;;;;;16.80;38.80;;;;;;4980102;28;20010;-69
2022/03/09 12:13:13;;;;;;;;;;;16.60;38.00;;;;;;4979646;28;20025;-69
2022/03/09 12:16:07;;;;;;;;;;;16.40;36.90;;;;;;4983734;28;19999;-68
2022/03/09 12:18:38;;;;;;;;;;;15.80;38.30;;;;;;4948817;28;20093;-69
2022/03/09 12:21:05;;;;;;;;;;;16.10;39.20;;;;;;4980812;28;20151;-69
2022/03/09 12:23:32;;;;;;;;;;;16.20;40.00;;;;;;4981619;28;20051;-69
2022/03/09 12:25:59;;;;;;;;;;;16.20;40.10;;;;;;4979816;28;20019;-69
2022/03/09 12:28:40;;;;;;;;;;;16.40;38.90;;;;;;4979075;28;20050;-69
2022/03/09 12:31:19;;;;;;;;;;;16.30;35.90;;;;;;4978499;28;20026;-69
2022/03/09 12:33:49;;;;;;;;;;;16.30;35.60;;;;;;4980192;28;20059;-69
2022/03/09 12:36:16;;;;;;;;;;;16.40;37.50;;;;;;4980985;28;20007;-70
2022/03/09 12:38:44;;;;;;;;;;;16.30;38.30;;;;;;4979895;28;20007;-69
2022/03/09 12:41:23;;;;;;;;;;;15.70;36.90;;;;;;4980343;28;20019;-71
2022/03/09 12:43:51;;;;;;;;;;;15.90;37.60;;;;;;4986183;28;20005;-70
2022/03/09 12:46:19;;;;;;;;;;;16.10;36.20;;;;;;4986534;28;20018;-70
2022/03/09 12:48:45;;;;;;;;;;;16.10;35.00;;;;;;4986541;28;19999;-70
2022/03/09 12:51:12;;;;;;;;;;;16.20;35.50;;;;;;4985992;28;20019;-70
2022/03/09 12:53:39;;;;;;;;;;;16.40;38.10;;;;;;4987273;28;20003;-69
2022/03/09 12:56:15;;;;;;;;;;;16.40;34.70;;;;;;4983416;28;20011;-69
2022/03/09 12:58:42;;;;;;;;;;;15.90;33.40;;;;;;4980639;28;20432;-70
2022/03/09 13:01:09;;;;;;;;;;;16.30;33.90;;;;;;4981659;28;20022;-70
2022/03/09 13:03:37;;;;;;;;;;;16.10;36.20;;;;;;4982055;28;20002;-70
2022/03/09 13:06:05;;;;;;;;;;;16.10;38.70;;;;;;4980625;28;20038;-70
2022/03/09 13:08:33;;;;;;;;;;;16.80;38.50;;;;;;4979953;28;20043;-69
2022/03/09 13:10:59;;;;;;;;;;;16.80;36.90;;;;;;4980105;28;20055;-69
2022/03/09 13:13:29;;;;;;;;;;;16.60;36.80;;;;;;4980780;28;20007;-69
2022/03/09 13:15:59;;;;;;;;;;;16.60;35.70;;;;;;4979767;28;20089;-69
2022/03/09 13:18:27;;;;;;;;;;;16.70;37.60;;;;;;4982065;28;20057;-69
2022/03/09 13:20:55;;;;;;;;;;;16.60;34.90;;;;;;4981615;28;20494;-69
2022/03/09 13:23:30;;;;;;;;;;;16.20;32.60;;;;;;4981272;28;20374;-70
2022/03/09 13:26:10;;;;;;;;;;;16.40;36.00;;;;;;4981225;28;20109;-70
2022/03/09 13:28:37;;;;;;;;;;;16.50;35.40;;;;;;4981893;28;19999;-70
2022/03/09 13:31:04;;;;;;;;;;;16.60;35.50;;;;;;4981957;28;20026;-70
2022/03/09 13:33:30;;;;;;;;;;;16.70;34.60;;;;;;4981070;28;20003;-70
2022/03/09 13:35:58;;;;;;;;;;;16.60;34.60;;;;;;4983458;28;20002;-69
2022/03/09 13:38:26;;;;;;;;;;;16.30;33.40;;;;;;4984125;28;20011;-69
2022/03/09 13:40:53;;;;;;;;;;;16.30;34.70;;;;;;4978819;28;20018;-69
2022/03/09 13:43:19;;;;;;;;;;;16.60;34.60;;;;;;4979414;28;20002;-70
2022/03/09 13:45:46;;;;;;;;;;;16.70;33.10;;;;;;4979146;28;20432;-69
2022/03/09 13:48:23;;;;;;;;;;;16.80;33.90;;;;;;4978758;28;20462;-69
2022/03/09 13:51:08;;;;;;;;;;;17.00;36.00;;;;;;4978404;28;20018;-69
2022/03/09 13:53:37;;;;;;;;;;;16.90;34.80;;;;;;4979349;28;20002;-69
2022/03/09 13:56:15;;;;;;;;;;;16.70;33.00;;;;;;4978091;28;20421;-69
2022/03/09 13:58:42;;;;;;;;;;;16.60;33.40;;;;;;4978621;28;19999;-71
2022/03/09 14:01:09;;;;;;;;;;;16.60;31.70;;;;;;4976961;28;20023;-71
2022/03/09 14:03:40;;;;;;;;;;;16.10;32.40;;;;;;4977644;28;20006;-71
2022/03/09 14:06:12;;;;;;;;;;;16.30;33.10;;;;;;4977166;28;20011;-70
2022/03/09 14:08:40;;;;;;;;;;;16.10;32.00;;;;;;4977957;28;20014;-70
2022/03/09 14:11:08;;;;;;;;;;;16.10;31.40;;;;;;4978307;28;20026;-70
2022/03/09 14:13:35;;;;;;;;;;;16.10;31.00;;;;;;4978514;28;20410;-70
2022/03/09 14:16:03;;;;;;;;;;;16.10;32.40;;;;;;4978766;28;20093;-70
2022/03/09 14:18:29;;;;;;;;;;;16.10;34.10;;;;;;4978635;28;20003;-70
2022/03/09 14:20:56;;;;;;;;;;;15.90;34.90;;;;;;4977827;28;20045;-70
2022/03/09 14:23:27;;;;;;;;;;;15.90;34.20;;;;;;4977498;28;20472;-71
2022/03/09 14:25:55;;;;;;;;;;;16.30;34.70;;;;;;4978478;28;20112;-70
2022/03/09 14:28:22;;;;;;;;;;;16.10;32.40;;;;;;4978585;28;20050;-70
2022/03/09 14:30:48;;;;;;;;;;;16.30;34.40;;;;;;4978706;28;20489;-71
2022/03/09 14:33:15;;;;;;;;;;;15.80;33.30;;;;;;4981461;28;20003;-70
2022/03/09 14:35:41;;;;;;;;;;;15.60;33.30;;;;;;4977897;28;20003;-69
2022/03/09 14:38:08;;;;;;;;;;;15.50;31.80;;;;;;4978810;28;20002;-69
2022/03/09 14:40:35;;;;;;;;;;;15.70;33.10;;;;;;4978554;28;20003;-70
2022/03/09 14:43:02;;;;;;;;;;;15.80;32.60;;;;;;4977732;28;20002;-71
2022/03/09 14:45:29;;;;;;;;;;;15.70;31.60;;;;;;4977437;28;20015;-69
2022/03/09 14:48:02;;;;;;;;;;;15.80;30.70;;;;;;4977965;28;20007;-69
2022/03/09 14:50:28;;;;;;;;;;;15.90;31.10;;;;;;4978075;28;20022;-70
2022/03/09 14:52:55;;;;;;;;;;;15.90;33.20;;;;;;4977435;28;20007;-70
2022/03/09 14:55:21;;;;;;;;;;;15.80;32.20;;;;;;4978193;28;20381;-70
2022/03/09 14:57:48;;;;;;;;;;;15.70;30.60;;;;;;4977284;28;20053;-69
2022/03/09 15:00:19;;;;;;;;;;;15.90;33.30;;;;;;4978616;28;20046;-70
2022/03/09 15:02:45;;;;;;;;;;;15.90;32.60;;;;;;4978212;28;20530;-70
2022/03/09 15:05:12;;;;;;;;;;;16.10;33.80;;;;;;4977661;28;20003;-70
2022/03/09 15:07:39;;;;;;;;;;;16.10;35.10;;;;;;4978076;28;20010;-69
2022/03/09 15:10:08;;;;;;;;;;;16.10;32.40;;;;;;4977943;28;20009;-70
2022/03/09 15:12:34;;;;;;;;;;;15.80;31.50;;;;;;4977998;28;20019;-70
2022/03/09 15:15:03;;;;;;;;;;;15.80;30.90;;;;;;4977647;28;20458;-70
2022/03/09 15:17:31;;;;;;;;;;;15.50;31.80;;;;;;4977721;28;20057;-70
2022/03/09 15:19:58;;;;;;;;;;;15.40;31.30;;;;;;4976673;28;20006;-70
2022/03/09 15:22:24;;;;;;;;;;;15.50;32.60;;;;;;4977188;28;20019;-70
2022/03/09 15:24:51;;;;;;;;;;;15.60;31.30;;;;;;4977161;28;20089;-71
2022/03/09 15:27:17;;;;;;;;;;;15.10;33.20;;;;;;4977569;28;20023;-70
2022/03/09 15:29:44;;;;;;;;;;;15.30;34.80;;;;;;4976933;28;20451;-69
2022/03/09 15:32:11;;;;;;;;;;;15.40;35.40;;;;;;4977240;28;20045;-70
2022/03/09 15:34:40;;;;;;;;;;;15.50;33.90;;;;;;4977153;28;20007;-69
2022/03/09 15:37:07;;;;;;;;;;;15.50;33.80;;;;;;4977180;28;20049;-70
2022/03/09 15:39:34;;;;;;;;;;;15.60;33.90;;;;;;4977034;28;20003;-69
2022/03/09 15:42:01;;;;;;;;;;;15.40;33.30;;;;;;4977359;28;20019;-70
2022/03/09 15:44:27;;;;;;;;;;;15.30;33.70;;;;;;4977091;28;20007;-70
2022/03/09 15:46:54;;;;;;;;;;;15.20;34.80;;;;;;4976826;28;20437;-70
2022/03/09 15:49:20;;;;;;;;;;;15.00;34.30;;;;;;4977378;28;20007;-70
2022/03/09 15:51:48;;;;;;;;;;;14.60;33.60;;;;;;4977353;28;20093;-70
2022/03/09 15:54:15;;;;;;;;;;;14.70;35.00;;;;;;4977886;28;20092;-69
2022/03/09 15:56:41;;;;;;;;;;;14.40;34.20;;;;;;4981911;28;20002;-70
2022/03/09 15:59:08;;;;;;;;;;;14.20;35.00;;;;;;4981143;28;20003;-70
2022/03/09 16:01:35;;;;;;;;;;;14.20;34.90;;;;;;4980478;28;20022;-70
2022/03/09 16:04:01;;;;;;;;;;;14.10;35.10;;;;;;4980890;28;20003;-70
2022/03/09 16:06:28;;;;;;;;;;;14.10;34.30;;;;;;4987717;28;20022;-69
2022/03/09 16:08:56;;;;;;;;;;;14.00;34.30;;;;;;4988671;28;20455;-70
2022/03/09 16:11:23;;;;;;;;;;;13.80;35.00;;;;;;4982671;28;20019;-70
2022/03/09 16:13:49;;;;;;;;;;;13.50;34.60;;;;;;4981213;28;20461;-70
2022/03/09 16:16:16;;;;;;;;;;;13.50;34.90;;;;;;4981020;28;20002;-69
2022/03/09 16:18:46;;;;;;;;;;;13.50;36.50;;;;;;4980864;28;20009;-68
2022/03/09 16:21:13;;;;;;;;;;;13.60;38.50;;;;;;4982423;28;20026;-69
2022/03/09 16:23:40;;;;;;;;;;;13.50;38.10;;;;;;4981837;28;20025;-69
2022/03/09 16:26:08;;;;;;;;;;;13.50;38.20;;;;;;4981551;28;20015;-68
2022/03/09 16:28:35;;;;;;;;;;;13.40;37.80;;;;;;4979707;28;20002;-68
2022/03/09 16:31:02;;;;;;;;;;;13.30;39.00;;;;;;4981944;28;20051;-69
2022/03/09 16:33:28;;;;;;;;;;;13.30;37.20;;;;;;4984431;28;20368;-68
2022/03/09 16:35:55;;;;;;;;;;;13.20;37.10;;;;;;4981510;28;20003;-68
2022/03/09 16:38:21;;;;;;;;;;;13.20;37.60;;;;;;4980274;28;20002;-68
2022/03/09 16:40:48;;;;;;;;;;;13.20;38.90;;;;;;4979928;28;20069;-69
2022/03/09 16:43:16;;;;;;;;;;;13.10;38.90;;;;;;4982451;28;20003;-69
2022/03/09 16:45:43;;;;;;;;;;;13.10;38.40;;;;;;4983644;28;20009;-68
2022/03/09 16:48:10;;;;;;;;;;;13.10;38.90;;;;;;4982974;28;20347;-68
2022/03/09 16:50:37;;;;;;;;;;;13.00;39.30;;;;;;4978315;28;20121;-70
2022/03/09 16:53:04;;;;;;;;;;;13.00;41.20;;;;;;4978307;28;20003;-70
2022/03/09 16:55:30;;;;;;;;;;;12.80;41.20;;;;;;4978085;28;20045;-69
2022/03/09 16:57:57;;;;;;;;;;;12.90;41.50;;;;;;4978006;28;20003;-69
2022/03/09 17:00:26;;;;;;;;;;;12.90;42.10;;;;;;4977885;28;20438;-71
2022/03/09 17:02:52;;;;;;;;;;;13.00;42.90;;;;;;4978899;28;20516;-68
2022/03/09 17:05:19;;;;;;;;;;;13.00;43.00;;;;;;4978399;28;20070;-68
2022/03/09 17:07:46;;;;;;;;;;;13.00;43.80;;;;;;4977655;28;20023;-69
2022/03/09 17:10:13;;;;;;;;;;;12.90;44.30;;;;;;4978080;28;20003;-69
2022/03/09 17:12:39;;;;;;;;;;;12.90;44.80;;;;;;4977911;28;20065;-70
2022/03/09 17:15:07;;;;;;;;;;;12.80;45.20;;;;;;4978428;28;20010;-70
2022/03/09 17:17:35;;;;;;;;;;;12.70;45.60;;;;;;4979260;28;20007;-68
2022/03/09 17:20:03;;;;;;;;;;;12.60;46.00;;;;;;4978297;28;20003;-70
2022/03/09 17:22:29;;;;;;;;;;;12.50;45.60;;;;;;4978226;28;20026;-69
2022/03/09 17:24:56;;;;;;;;;;;12.40;45.70;;;;;;4977836;28;20359;-69
2022/03/09 17:27:23;;;;;;;;;;;12.30;45.90;;;;;;4977647;28;20019;-69
2022/03/09 17:29:49;;;;;;;;;;;12.20;45.40;;;;;;4977479;28;20002;-69
2022/03/09 17:32:18;;;;;;;;;;;11.90;44.90;;;;;;4978169;28;20019;-68
2022/03/09 17:34:46;;;;;;;;;;;11.70;45.20;;;;;;4977411;28;20003;-68
2022/03/09 17:37:13;;;;;;;;;;;11.60;45.40;;;;;;4976679;28;20003;-68
2022/03/09 17:39:41;;;;;;;;;;;11.40;44.90;;;;;;4976918;28;20003;-68
2022/03/09 17:42:07;;;;;;;;;;;11.30;45.10;;;;;;4976730;28;20424;-69
2022/03/09 17:44:34;;;;;;;;;;;11.10;45.10;;;;;;4977136;28;20003;-70
2022/03/09 17:47:01;;;;;;;;;;;11.10;44.90;;;;;;4977565;28;20015;-70
2022/03/09 17:49:28;;;;;;;;;;;11.10;45.10;;;;;;4976815;28;20007;-67
2022/03/09 17:51:57;;;;;;;;;;;11.00;46.40;;;;;;4976681;28;20081;-69
2022/03/09 17:54:28;;;;;;;;;;;10.90;47.40;;;;;;4977621;28;20097;-69
2022/03/09 17:56:58;;;;;;;;;;;10.80;47.40;;;;;;4977022;28;19999;-68
2022/03/09 17:59:25;;;;;;;;;;;10.80;47.00;;;;;;4977345;28;20003;-69
2022/03/09 18:01:52;;;;;;;;;;;10.80;47.20;;;;;;4976645;28;20022;-69
2022/03/09 18:04:18;;;;;;;;;;;10.70;47.20;;;;;;4977374;28;20007;-69
2022/03/09 18:06:45;;;;;;;;;;;10.60;47.20;;;;;;4976925;28;20065;-70
2022/03/09 18:09:13;;;;;;;;;;;10.60;47.20;;;;;;4976534;28;20026;-70
2022/03/09 18:11:40;;;;;;;;;;;10.50;47.30;;;;;;4976917;28;20022;-69
2022/03/09 18:14:07;;;;;;;;;;;10.50;47.50;;;;;;4976506;28;19999;-69
2022/03/09 18:16:33;;;;;;;;;;;10.50;48.10;;;;;;4976907;28;20009;-69
2022/03/09 18:19:00;;;;;;;;;;;10.40;47.80;;;;;;4976208;28;20003;-70
2022/03/09 18:21:27;;;;;;;;;;;10.40;48.30;;;;;;4976848;28;20042;-70
2022/03/09 18:23:53;;;;;;;;;;;10.30;48.70;;;;;;4976677;28;20009;-68
2022/03/09 18:26:21;;;;;;;;;;;10.30;48.50;;;;;;4976288;28;20007;-69
2022/03/09 18:28:48;;;;;;;;;;;10.20;48.50;;;;;;4976522;28;20010;-69
2022/03/09 18:31:15;;;;;;;;;;;10.20;48.70;;;;;;4978037;28;20042;-69
2022/03/09 18:33:41;;;;;;;;;;;10.10;49.00;;;;;;4976527;28;20050;-69
2022/03/09 18:36:08;;;;;;;;;;;10.00;50.50;;;;;;4976640;28;20007;-69
2022/03/09 18:38:36;;;;;;;;;;;9.90;52.90;;;;;;4976439;28;20002;-68
2022/03/09 18:41:02;;;;;;;;;;;9.90;52.80;;;;;;4976369;28;20022;-69
2022/03/09 18:43:30;;;;;;;;;;;9.80;53.50;;;;;;4976432;28;20057;-69
2022/03/09 18:45:57;;;;;;;;;;;9.80;53.50;;;;;;4976028;28;20485;-69
2022/03/09 18:48:24;;;;;;;;;;;9.70;53.00;;;;;;4976110;28;20018;-69
2022/03/09 18:50:51;;;;;;;;;;;9.60;51.40;;;;;;4976308;28;20029;-69
2022/03/09 18:53:17;;;;;;;;;;;9.60;52.10;;;;;;4976651;28;20101;-68
2022/03/09 18:55:44;;;;;;;;;;;9.60;53.90;;;;;;4977194;28;20010;-68
2022/03/09 18:58:10;;;;;;;;;;;9.60;54.00;;;;;;4977858;28;20013;-68
2022/03/09 19:00:38;;;;;;;;;;;9.60;53.10;;;;;;4976547;28;20014;-66
2022/03/09 19:03:05;;;;;;;;;;;9.60;52.10;;;;;;4976934;28;20006;-67
2022/03/09 19:05:31;;;;;;;;;;;9.90;76.60;;;;;;4976296;28;20002;-66
2022/03/09 19:07:58;;;;;;;;;;;10.30;63.10;;;;;;4979191;28;20015;-69
2022/03/09 19:10:25;;;;;;;;;;;10.40;57.80;;;;;;4983504;28;20002;-70
2022/03/09 19:12:51;;;;;;;;;;;10.50;54.60;;;;;;4984116;28;20003;-69
2022/03/09 19:15:18;;;;;;;;;;;10.60;53.80;;;;;;4982865;28;20002;-68
2022/03/09 19:17:46;;;;;;;;;;;10.60;55.40;;;;;;4984247;28;20003;-68
2022/03/09 19:20:12;;;;;;;;;;;10.60;54.10;;;;;;4983986;28;19999;-69
2022/03/09 19:22:39;;;;;;;;;;;10.50;56.40;;;;;;4983484;28;20019;-69